Map

Track Data

SID SEASON NUMBER BASIN SUBBASIN NAME ISO_TIME NATURE LAT LON WMO_WIND WMO_PRES WMO_AGENCY TRACK_TYPE DIST2LAND LANDFALL IFLAG USA_AGENCY USA_ATCF_ID USA_LAT USA_LON USA_RECORD USA_STATUS USA_WIND USA_PRES USA_SSHS USA_R34_NE USA_R34_SE USA_R34_SW USA_R34_NW USA_R50_NE USA_R50_SE USA_R50_SW USA_R50_NW USA_R64_NE USA_R64_SE USA_R64_SW USA_R64_NW USA_POCI USA_ROCI USA_RMW USA_EYE TOKYO_LAT TOKYO_LON TOKYO_GRADE TOKYO_WIND TOKYO_PRES TOKYO_R50_DIR TOKYO_R50_LONG TOKYO_R50_SHORT TOKYO_R30_DIR TOKYO_R30_LONG TOKYO_R30_SHORT TOKYO_LAND CMA_LAT CMA_LON CMA_CAT CMA_WIND CMA_PRES HKO_LAT HKO_LON HKO_CAT HKO_WIND HKO_PRES NEWDELHI_LAT NEWDELHI_LON NEWDELHI_GRADE NEWDELHI_WIND NEWDELHI_PRES NEWDELHI_CI NEWDELHI_DP NEWDELHI_POCI REUNION_LAT REUNION_LON REUNION_TYPE REUNION_WIND REUNION_PRES REUNION_TNUM REUNION_CI REUNION_RMW REUNION_R34_NE REUNION_R34_SE REUNION_R34_SW REUNION_R34_NW REUNION_R50_NE REUNION_R50_SE REUNION_R50_SW REUNION_R50_NW REUNION_R64_NE REUNION_R64_SE REUNION_R64_SW REUNION_R64_NW BOM_LAT BOM_LON BOM_TYPE BOM_WIND BOM_PRES BOM_TNUM BOM_CI BOM_RMW BOM_R34_NE BOM_R34_SE BOM_R34_SW BOM_R34_NW BOM_R50_NE BOM_R50_SE BOM_R50_SW BOM_R50_NW BOM_R64_NE BOM_R64_SE BOM_R64_SW BOM_R64_NW BOM_ROCI BOM_POCI BOM_EYE BOM_POS_METHOD BOM_PRES_METHOD NADI_LAT NADI_LON NADI_CAT NADI_WIND NADI_PRES WELLINGTON_LAT WELLINGTON_LON WELLINGTON_WIND WELLINGTON_PRES DS824_LAT DS824_LON DS824_STAGE DS824_WIND DS824_PRES TD9636_LAT TD9636_LON TD9636_STAGE TD9636_WIND TD9636_PRES TD9635_LAT TD9635_LON TD9635_WIND TD9635_PRES TD9635_ROCI NEUMANN_LAT NEUMANN_LON NEUMANN_CLASS NEUMANN_WIND NEUMANN_PRES MLC_LAT MLC_LON MLC_CLASS MLC_WIND MLC_PRES USA_GUST BOM_GUST BOM_GUST_PER REUNION_GUST REUNION_GUST_PER USA_SEAHGT USA_SEARAD_NE USA_SEARAD_SE USA_SEARAD_SW USA_SEARAD_NW STORM_SPEED STORM_DIR
1952057S15146 1952 17 SP EA NOT_NAMED 1952-02-26 00:00:00 TS -14.9000 145.700 main 44 44 O________OO___ jtwc_sh SH161952 -14.9000 145.700 -1 -14.9000 145.700 TC -14.9000 145.700 2 18 86
1952057S15146 1952 17 SP EA NOT_NAMED 1952-02-26 03:00:00 TS -14.8428 146.611 main 140 140 P________PP___ SH161952 -14.8283 146.623 -1 -14.8283 146.623 TC -14.8719 146.588 2 17 87
1952057S15146 1952 17 SP EA NOT_NAMED 1952-02-26 06:00:00 TS -14.8212 147.484 main 232 232 O________OP___ jtwc_sh SH161952 -14.8000 147.500 -1 -14.8000 147.500 TC -14.8635 147.451 2 16 91
1952057S15146 1952 17 SP EA NOT_NAMED 1952-02-26 09:00:00 TS -14.8692 148.284 main 314 314 P________PP___ SH161952 -14.8547 148.295 -1 -14.8547 148.295 TC -14.8983 148.263 2 15 97
1952057S15146 1952 17 SP EA NOT_NAMED 1952-02-26 12:00:00 TS -15.0000 149.000 main 388 388 O________OO___ jtwc_sh SH161952 -15.0000 149.000 -1 -15.0000 149.000 TC -15.0000 149.000 2 14 105
1952057S15146 1952 17 SP EA NOT_NAMED 1952-02-26 15:00:00 TS -15.2128 149.640 main 443 443 P________PP___ SH161952 -15.2273 149.637 -1 -15.2273 149.637 TC -15.1840 149.645 2 13 112
1952057S15146 1952 17 SP EA NOT_NAMED 1952-02-26 18:00:00 TS -15.4770 150.204 main 486 486 O________OP___ jtwc_sh SH161952 -15.5000 150.200 -1 -15.5000 150.200 TC -15.4309 150.212 2 12 117
1952057S15146 1952 17 SP EA NOT_NAMED 1952-02-26 21:00:00 TS -15.7373 150.718 main 526 521 P________PP___ SH161952 -15.7498 150.715 -1 -15.7498 150.715 TC -15.7125 150.723 2 11 119
1952057S15146 1952 17 SP EA NOT_NAMED 1952-02-27 00:00:00 TS -16.0000 151.200 main 542 539 O________OO___ jtwc_sh SH161952 -16.0000 151.200 -1 -16.0000 151.200 TC -16.0000 151.200 2 11 118
1952057S15146 1952 17 SP EA NOT_NAMED 1952-02-27 03:00:00 TS -16.2526 151.714 main 542 542 P________PP___ SH161952 -16.2500 151.715 -1 -16.2500 151.715 TC -16.2579 151.711 2 11 118
1952057S15146 1952 17 SP EA NOT_NAMED 1952-02-27 06:00:00 TS -16.5049 152.197 main 556 554 O________OP___ jtwc_sh SH161952 -16.5000 152.200 -1 -16.5000 152.200 TC -16.5148 152.190 2 10 120
1952057S15146 1952 17 SP EA NOT_NAMED 1952-02-27 09:00:00 TS -16.7597 152.628 main 560 560 P________PP___ SH161952 -16.7574 152.630 -1 -16.7574 152.630 TC -16.7643 152.624 2 9 123
1952057S15146 1952 17 SP EA NOT_NAMED 1952-02-27 12:00:00 TS -17.0000 153.000 main 576 576 O________OO___ jtwc_sh SH161952 -17.0000 153.000 -1 -17.0000 153.000 TC -17.0000 153.000 2 8 124
1952057S15146 1952 17 SP EA NOT_NAMED 1952-02-27 15:00:00 TS -17.2042 153.326 main 587 587 P________PP___ SH161952 -17.2074 153.330 -1 -17.2074 153.330 TC -17.1976 153.316 2 7 125
1952057S15146 1952 17 SP EA NOT_NAMED 1952-02-27 18:00:00 TS -17.3948 153.592 main 600 600 O________OP___ jtwc_sh SH161952 -17.4000 153.600 -1 -17.4000 153.600 TC -17.3844 153.576 2 6 129
1952057S15146 1952 17 SP EA NOT_NAMED 1952-02-27 21:00:00 TS -17.5830 153.809 main 606 606 P________PP___ SH161952 -17.5849 153.815 -1 -17.5849 153.815 TC -17.5790 153.797 2 6 136
1952057S15146 1952 17 SP EA NOT_NAMED 1952-02-28 00:00:00 TS -17.8000 154.000 main 613 603 O________OO___ jtwc_sh SH161952 -17.8000 154.000 -1 -17.8000 154.000 TC -17.8000 154.000 2 6 143
1952057S15146 1952 17 SP EA NOT_NAMED 1952-02-28 03:00:00 TS -18.0858 154.209 main 603 590 P________PP___ SH161952 -18.0850 154.200 -1 -18.0850 154.200 TC -18.0874 154.226 2 7 147
1952057S15146 1952 17 SP EA NOT_NAMED 1952-02-28 06:00:00 TS -18.4000 154.412 main 590 579 O________OP___ jtwc_sh SH161952 -18.4000 154.400 -1 -18.4000 154.400 TC -18.3999 154.437 2 7 148
1952057S15146 1952 17 SP EA NOT_NAMED 1952-02-28 09:00:00 TS -18.7142 154.615 main 579 571 P________PP___ SH161952 -18.7150 154.607 -1 -18.7150 154.607 TC -18.7125 154.630 2 7 149
1952057S15146 1952 17 SP EA NOT_NAMED 1952-02-28 12:00:00 TS -19.0000 154.800 main 571 563 O________OO___ jtwc_sh SH161952 -19.0000 154.800 -1 -19.0000 154.800 TC -19.0000 154.800 2 6 147
1952057S15146 1952 17 SP EA NOT_NAMED 1952-02-28 15:00:00 TS -19.2246 154.959 main 571 564 P________PP___ SH161952 -19.2150 154.965 -1 -19.2150 154.965 TC -19.2438 154.947 2 5 147
1952057S15146 1952 17 SP EA NOT_NAMED 1952-02-28 18:00:00 TS -19.4167 155.092 main 565 558 O________OP___ jtwc_sh SH161952 -19.4000 155.100 -1 -19.4000 155.100 TC -19.4500 155.075 2 4 149
1952057S15146 1952 17 SP EA NOT_NAMED 1952-02-28 21:00:00 TS -19.6071 155.202 main 559 553 P________PP___ SH161952 -19.5950 155.207 -1 -19.5950 155.207 TC -19.6313 155.191 2 4 153
1952057S15146 1952 17 SP EA NOT_NAMED 1952-02-29 00:00:00 TS -19.8000 155.300 main 555 O________OO___ jtwc_sh SH161952 -19.8000 155.300 -1 -19.8000 155.300 TC -19.8000 155.300 2 4 155

Digital Typhoon Data and Search

About IBTrACS Database

This database is a web-friendly format of International Best Track Archive for Climate Stewardship (IBTrACS), a global best track data archive curated by NOAA dating back to 1842.

Updated: 2021-11-26